Highland Valley West (175) Station Data

Red Flag Warning: No
Fire Weather Zone: 250
SDGE Region: Ramona
Lat/Lon: 33.067/-116.99

Observations

Time Wind Speed/Gust Temp(F) RH Fuel Moist Fuel Temp(F) Dewpt(F) Tmax(F) Tmin(F) Accum Precip 10-min Precip SL Press(mb)
3/29 8:00am 137 1 G 2 63° 34% - - 34° 65.2° 54° - - -
3/29 7:50am 78 2 G 4 64° 29% - - 31° 65.2° 54° - - -
3/29 7:40am 62 3 G 4 64° 26% - - 29° 65.2° 54° - - -
3/29 7:30am 55 3 G 4 63° 25% - - 27° 64.8° 54° - - -
3/29 7:20am 67 3 G 6 63° 25% - - 27° 64.8° 54° - - -
3/29 7:10am 53 5 G 6 64° 23% - - 25° 64.8° 54° - - -
3/29 7:00am 61 4 G 6 62° 24% - - 25° 63.6° 54° - - -
3/29 6:50am 59 5 G 6 61° 25% - - 25° 63.6° 54° - - -
3/29 6:40am 62 5 G 6 61° 25% - - 25° 63.6° 54° - - -
3/29 6:30am 61 6 G 7 62° 25% - - 25° 63.6° 54° - - -
3/29 6:20am 52 4 G 6 62° 25% - - 25° 63.6° 54° - - -
3/29 6:10am 54 5 G 6 62° 25% - - 26° 63.6° 54° - - -
3/29 6:00am 54 6 G 8 60° 28% - - 27° 63.2° 54° - - -
3/29 5:50am 55 5 G 8 62° 26% - - 26° 63.2° 54° - - -
3/29 5:40am 48 4 G 5 62° 27% - - 27° 63.2° 54° - - -
3/29 5:30am 53 5 G 7 62° 26% - - 27° 63.2° 54° - - -
3/29 5:20am 47 4 G 6 61° 29% - - 28° 62.9° 54° - - -
3/29 5:10am 68 4 G 5 58° 34% - - 29° 62.6° 54° - - -
3/29 5:00am 69 4 G 6 60° 30% - - 29° 62.6° 54° - - -
3/29 4:50am 60 5 G 6 59° 31% - - 29° 62.6° 54° - - -
3/29 4:40am 61 4 G 5 60° 29% - - 28° 62.6° 54° - - -
3/29 4:30am 55 5 G 6 61° 29% - - 28° 62.6° 54° - - -
3/29 4:20am 55 5 G 6 61° 29% - - 28° 62.6° 54° - - -
3/29 4:10am 56 5 G 6 61° 29% - - 29° 62.6° 54° - - -
3/29 4:00am 56 5 G 6 61° 29% - - 29° 62.6° 54° - - -
3/29 3:50am 76 5 G 6 58° 36% - - 32° 62.6° 54° - - -
3/29 3:40am 77 4 G 7 60° 35% - - 32° 62.6° 54° - - -
3/29 3:30am 67 4 G 7 59° 38% - - 33° 62.2° 54° - - -
3/29 3:20am 54 6 G 9 61° 33% - - 32° 62.2° 54° - - -
3/29 3:10am 64 6 G 8 59° 38% - - 34° 61.3° 54° - - -
3/29 3:00am 66 7 G 12 57° 46% - - 37° 61.2° 54° - - -
3/29 2:50am 71 5 G 7 60° 38% - - 34° 61.2° 54° - - -
3/29 2:40am 63 5 G 7 60° 38% - - 34° 61° 54° - - -
3/29 2:30am 67 4 G 6 60° 40% - - 36° 61° 54° - - -
3/29 2:20am 79 5 G 6 59° 46% - - 38° 60.8° 54° - - -
3/29 2:10am 70 6 G 9 57° 52% - - 40° 60.8° 54° - - -
3/29 2:00am 64 6 G 9 59° 51% - - 41° 60.8° 54° - - -
3/29 1:50am 67 6 G 8 57° 56% - - 42° 60.8° 54° - - -
3/29 1:40am 73 5 G 6 55° 61% - - 42° 60.8° 54° - - -
3/29 1:30am 83 5 G 8 58° 55% - - 42° 60.8° 54° - - -
3/29 1:20am 55 5 G 7 59° 53% - - 42° 60.4° 54° - - -
3/29 1:10am 64 5 G 8 57° 57% - - 43° 59.6° 54° - - -
3/29 1:00am 77 3 G 7 58° 56% - - 42° 59.6° 54° - - -
3/29 12:50am 47 3 G 4 58° 56% - - 42° 59.6° 54° - - -
3/29 12:40am 79 3 G 5 58° 57% - - 42° 59.6° 54° - - -
3/29 12:30am 62 5 G 8 57° 60% - - 43° 59.6° 54° - - -
3/29 12:20am 73 6 G 9 57° 56% - - 42° 59.6° 54.2° - - -
3/29 12:10am 69 4 G 5 57° 55% - - 42° 58.7° 56.2° - - -
3/29 12:00am 64 5 G 6 58° 54% - - 42° 72° 44.4° - - -
3/28 11:50pm 61 4 G 6 55° 61% - - 42° 72° 44.4° - - -
3/28 11:40pm 52 2 G 6 57° 57% - - 42° 72° 44.4° - - -
3/28 11:30pm 70 2 G 3 57° 56% - - 42° 72° 44.4° - - -
3/28 11:20pm 60 4 G 7 59° 53% - - 42° 72° 44.4° - - -
3/28 11:10pm 53 4 G 7 58° 54% - - 42° 72° 44.4° - - -
3/28 11:00pm 64 5 G 8 58° 54% - - 42° 72° 44.4° - - -
3/28 10:50pm 79 5 G 8 59° 52% - - 41° 72° 44.4° - - -
3/28 10:40pm 70 5 G 7 58° 54% - - 41° 72° 44.4° - - -
3/28 10:30pm 67 4 G 5 58° 54% - - 41° 72° 44.4° - - -
3/28 10:20pm 77 5 G 7 57° 53% - - 40° 72° 44.4° - - -
3/28 10:10pm 76 5 G 6 58° 50% - - 39° 72° 44.4° - - -
3/28 10:00pm 69 4 G 5 58° 50% - - 39° 72° 44.4° - - -
3/28 9:50pm 72 4 G 4 58° 51% - - 39° 72° 44.4° - - -
3/28 9:40pm 69 4 G 5 59° 49% - - 40° 72° 44.4° - - -
3/28 9:30pm 63 3 G 4 58° 51% - - 40° 72° 44.4° - - -
3/28 9:20pm 77 3 G 3 58° 53% - - 41° 72° 44.4° - - -
3/28 9:10pm 84 2 G 3 58° 54% - - 41° 72° 44.4° - - -
3/28 9:00pm 69 2 G 3 58° 55% - - 42° 72° 44.4° - - -
3/28 8:50pm 70 3 G 4 57° 54% - - 41° 72° 44.4° - - -
3/28 8:40pm 105 3 G 4 57° 51% - - 39° 72° 44.4° - - -
3/28 8:30pm 89 3 G 4 58° 49% - - 39° 72° 44.4° - - -
3/28 8:20pm 29 2 G 4 60° 46% - - 39° 72° 44.4° - - -
3/28 8:10pm 76 1 G 2 60° 46% - - 39° 72° 44.4° - - -
3/28 8:00pm 249 2 G 3 60° 46% - - 39° 72° 44.4° - - -
3/28 7:50pm 250 2 G 3 60° 48% - - 40° 72° 44.4° - - -
3/28 7:40pm 237 1 G 3 60° 49% - - 41° 72° 44.4° - - -
3/28 7:30pm 254 1 G 2 61° 49% - - 41° 72° 44.4° - - -
3/28 7:20pm 249 1 G 2 61° 49% - - 42° 72° 44.4° - - -
3/28 7:10pm 238 1 G 3 62° 49% - - 42° 72° 44.4° - - -
3/28 7:00pm 237 2 G 4 62° 48% - - 42° 72° 44.4° - - -
3/28 6:50pm 240 3 G 6 63° 47% - - 42° 72° 44.4° - - -
3/28 6:40pm 242 4 G 6 63° 46% - - 42° 72° 44.4° - - -
3/28 6:30pm 241 5 G 7 64° 45% - - 42° 72° 44.4° - - -
3/28 6:20pm 271 5 G 9 65° 44% - - 43° 72° 44.4° - - -
3/28 6:10pm 244 5 G 8 65° 45% - - 43° 72° 44.4° - - -
3/28 6:00pm 240 5 G 8 65° 44% - - 43° 72° 44.4° - - -
3/28 5:50pm 240 6 G 11 66° 43% - - 43° 72° 44.4° - - -
3/28 5:40pm 255 6 G 11 66° 43% - - 43° 72° 44.4° - - -
3/28 5:30pm 239 7 G 12 67° 43% - - 43° 72° 44.4° - - -
3/28 5:20pm 243 7 G 11 67° 39% - - 42° 72° 44.4° - - -
3/28 5:10pm 239 7 G 11 67° 39% - - 42° 72° 44.4° - - -
3/28 5:00pm 239 7 G 12 68° 39% - - 43° 72° 44.4° - - -
3/28 4:50pm 254 7 G 11 69° 39% - - 43° 72° 44.4° - - -
3/28 4:40pm 250 6 G 11 69° 39% - - 43° 72° 44.4° - - -
3/28 4:30pm 260 7 G 11 69° 38% - - 43° 72° 44.4° - - -
3/28 4:20pm 258 6 G 9 69° 39% - - 43° 72° 44.4° - - -
3/28 4:10pm 244 6 G 11 70° 39% - - 44° 72° 44.4° - - -
3/28 4:00pm 259 7 G 11 69° 40% - - 44° 72° 44.4° - - -
3/28 3:50pm 237 6 G 11 70° 38% - - 43° 72° 44.4° - - -
3/28 3:40pm 252 7 G 13 70° 38% - - 43° 72° 44.4° - - -
3/28 3:30pm 269 7 G 14 71° 36% - - 42° 72° 44.4° - - -
3/28 3:20pm 261 6 G 10 71° 36% - - 43° 72° 44.4° - - -
3/28 3:10pm 258 6 G 11 71° 37% - - 43° 72° 44.4° - - -
3/28 3:00pm 264 4 G 8 71° 37% - - 43° 71.7° 44.4° - - -
3/28 2:50pm 270 5 G 10 71° 38% - - 44° 71.7° 44.4° - - -
3/28 2:40pm 259 5 G 10 71° 40% - - 45° 71.7° 44.4° - - -
3/28 2:30pm 261 6 G 9 70° 41% - - 46° 71.1° 44.4° - - -
3/28 2:20pm 265 6 G 13 70° 41% - - 45° 70.3° 44.4° - - -
3/28 2:10pm 258 6 G 12 70° 43% - - 46° 70.3° 44.4° - - -
3/28 2:00pm 241 6 G 10 69° 45% - - 47° 70.1° 44.4° - - -
3/28 1:50pm 266 6 G 12 69° 44% - - 47° 70.1° 44.4° - - -
3/28 1:40pm 262 6 G 11 69° 42% - - 45° 70° 44.4° - - -
3/28 1:30pm 271 6 G 13 69° 39% - - 43° 70° 44.4° - - -
3/28 1:20pm 276 6 G 13 69° 38% - - 42° 70° 44.4° - - -
3/28 1:10pm 262 5 G 11 69° 35% - - 40° 70° 44.4° - - -
3/28 1:00pm 275 5 G 10 69° 33% - - 39° 70° 44.4° - - -
3/28 12:50pm 250 5 G 9 69° 32% - - 37° 70° 44.4° - - -
3/28 12:40pm 281 5 G 12 69° 29% - - 35° 69.7° 44.4° - - -
3/28 12:30pm 242 4 G 10 69° 26% - - 32° 69.7° 44.4° - - -
3/28 12:20pm 273 5 G 9 68° 26% - - 32° 68.9° 44.4° - - -
3/28 12:10pm 275 5 G 8 68° 27% - - 32° 68.7° 44.4° - - -
3/28 12:00pm 250 5 G 9 67° 30% - - 35° 68° 44.4° - - -
3/28 11:50am 274 5 G 9 67° 35% - - 38° 67.3° 44.4° - - -
3/28 11:40am 265 4 G 10 66° 39% - - 40° 67.1° 44.4° - - -
3/28 11:30am 246 5 G 8 66° 41% - - 41° 66.9° 44.4° - - -
3/28 11:20am 272 5 G 7 65° 43% - - 42° 66.1° 44.4° - - -
3/28 11:10am 272 4 G 7 64° 43% - - 42° 65.6° 44.4° - - -
3/28 11:00am 294 5 G 9 64° 46% - - 43° 65.1° 44.4° - - -
3/28 10:50am 282 3 G 6 63° 49% - - 44° 63.8° 44.4° - - -
3/28 10:40am 271 4 G 7 62° 50% - - 43° 62.6° 44.4° - - -
3/28 10:30am 254 3 G 6 61° 51% - - 43° 61.8° 44.4° - - -
3/28 10:20am 291 3 G 5 60° 53% - - 43° 61° 44.4° - - -
3/28 10:10am 272 3 G 6 60° 51% - - 42° 60.5° 44.4° - - -
3/28 10:00am 269 2 G 5 60° 52% - - 42° 60.2° 44.4° - - -
3/28 9:50am 280 3 G 6 59° 57% - - 44° 60° 44.4° - - -
3/28 9:40am 306 3 G 5 58° 68% - - 47° 59.7° 44.4° - - -
3/28 9:30am 303 3 G 4 58° 69% - - 48° 59.7° 44.4° - - -
3/28 9:20am 270 2 G 4 57° 70% - - 48° 59.7° 44.4° - - -
3/28 9:10am 311 3 G 7 56° 72% - - 47° 59.7° 44.4° - - -
3/28 9:00am 262 2 G 5 59° 58% - - 44° 59.7° 44.4° - - -
3/28 8:50am 79 4 G 6 57° 62% - - 44° 58.2° 44.4° - - -
3/28 8:40am 64 3 G 5 57° 59% - - 43° 58.2° 44.4° - - -
3/28 8:30am 82 4 G 7 56° 66% - - 45° 57.2° 44.4° - - -
3/28 8:20am 81 5 G 7 55° 70% - - 45° 55.5° 44.4° - - -
3/28 8:10am 75 4 G 6 54° 72% - - 45° 54.9° 44.4° - - -
3/28 8:00am 78 3 G 6 54° 73% - - 46° 54.7° 44.4° - - -
3/28 7:50am 68 3 G 5 53° 76% - - 46° 54° 44.4° - - -
3/28 7:40am 57 3 G 5 51° 79% - - 45° 52.7° 44.4° - - -
3/28 7:30am 57 5 G 7 51° 81% - - 45° 52.7° 44.4° - - -
3/28 7:20am 58 4 G 5 50° 83% - - 45° 52.7° 44.4° - - -
3/28 7:10am 62 4 G 5 49° 88% - - 45° 52.7° 44.4° - - -
3/28 7:00am 79 3 G 5 49° 89% - - 45° 52.7° 44.4° - - -
3/28 6:50am 55 2 G 4 48° 92% - - 46° 52.7° 44.4° - - -
3/28 6:40am 89 2 G 4 46° 92% - - 44° 52.7° 44.4° - - -
3/28 6:30am 83 2 G 4 46° 91% - - 43° 52.7° 45.3° - - -
3/28 6:20am 226 2 G 5 47° 89% - - 44° 52.7° 45.7° - - -
3/28 6:10am 78 3 G 6 48° 89% - - 45° 52.7° 47.1° - - -
3/28 6:00am 325 2 G 5 48° 86% - - 44° 52.7° 47.1° - - -